sensor_id;sensor_type;location;lat;lon;timestamp;P1;durP1;ratioP1;P2;durP2;ratioP2
40787;SDS011;26497;52.494;7.546;2023-09-30T00:01:09;79.07;;;72.00;;
40787;SDS011;26497;52.494;7.546;2023-09-30T00:03:36;83.25;;;74.60;;
40787;SDS011;26497;52.494;7.546;2023-09-30T00:06:03;79.05;;;71.28;;
40787;SDS011;26497;52.494;7.546;2023-09-30T00:08:30;87.18;;;78.43;;
40787;SDS011;26497;52.494;7.546;2023-09-30T00:10:58;88.82;;;79.70;;
40787;SDS011;26497;52.494;7.546;2023-09-30T00:13:26;90.07;;;76.53;;
40787;SDS011;26497;52.494;7.546;2023-09-30T00:15:54;83.18;;;75.40;;
40787;SDS011;26497;52.494;7.546;2023-09-30T00:18:21;86.35;;;78.43;;
40787;SDS011;26497;52.494;7.546;2023-09-30T00:20:48;91.40;;;82.85;;
40787;SDS011;26497;52.494;7.546;2023-09-30T00:23:15;89.07;;;81.03;;
40787;SDS011;26497;52.494;7.546;2023-09-30T00:25:43;81.80;;;74.15;;
40787;SDS011;26497;52.494;7.546;2023-09-30T00:28:11;84.45;;;77.25;;
40787;SDS011;26497;52.494;7.546;2023-09-30T00:30:41;83.45;;;75.35;;
40787;SDS011;26497;52.494;7.546;2023-09-30T00:33:11;82.65;;;75.28;;
40787;SDS011;26497;52.494;7.546;2023-09-30T00:35:38;84.57;;;76.50;;
40787;SDS011;26497;52.494;7.546;2023-09-30T00:38:05;86.43;;;78.45;;
40787;SDS011;26497;52.494;7.546;2023-09-30T00:40:33;88.38;;;79.25;;
40787;SDS011;26497;52.494;7.546;2023-09-30T00:43:04;87.72;;;75.00;;
40787;SDS011;26497;52.494;7.546;2023-09-30T00:45:31;86.63;;;78.57;;
40787;SDS011;26497;52.494;7.546;2023-09-30T00:48:00;87.32;;;78.53;;
40787;SDS011;26497;52.494;7.546;2023-09-30T00:50:28;89.97;;;80.65;;
40787;SDS011;26497;52.494;7.546;2023-09-30T00:52:55;87.38;;;76.97;;
40787;SDS011;26497;52.494;7.546;2023-09-30T00:55:22;88.85;;;80.03;;
40787;SDS011;26497;52.494;7.546;2023-09-30T00:57:50;88.32;;;74.30;;
40787;SDS011;26497;52.494;7.546;2023-09-30T01:00:18;84.78;;;76.65;;
40787;SDS011;26497;52.494;7.546;2023-09-30T01:02:46;102.88;;;75.43;;
40787;SDS011;26497;52.494;7.546;2023-09-30T01:05:15;92.45;;;74.85;;
40787;SDS011;26497;52.494;7.546;2023-09-30T01:07:42;85.85;;;77.03;;
40787;SDS011;26497;52.494;7.546;2023-09-30T01:10:09;91.13;;;73.85;;
40787;SDS011;26497;52.494;7.546;2023-09-30T01:12:36;86.35;;;76.00;;
40787;SDS011;26497;52.494;7.546;2023-09-30T01:15:04;88.60;;;75.43;;
40787;SDS011;26497;52.494;7.546;2023-09-30T01:17:32;82.45;;;73.18;;
40787;SDS011;26497;52.494;7.546;2023-09-30T01:19:59;83.78;;;70.82;;
40787;SDS011;26497;52.494;7.546;2023-09-30T01:22:27;84.35;;;69.75;;
40787;SDS011;26497;52.494;7.546;2023-09-30T01:24:55;82.78;;;69.85;;
40787;SDS011;26497;52.494;7.546;2023-09-30T01:27:22;81.18;;;72.28;;
40787;SDS011;26497;52.494;7.546;2023-09-30T01:29:50;88.72;;;75.05;;
40787;SDS011;26497;52.494;7.546;2023-09-30T01:32:17;84.25;;;71.05;;
40787;SDS011;26497;52.494;7.546;2023-09-30T01:34:44;77.63;;;68.95;;
40787;SDS011;26497;52.494;7.546;2023-09-30T01:37:11;88.90;;;73.38;;
40787;SDS011;26497;52.494;7.546;2023-09-30T01:39:40;79.22;;;71.10;;
40787;SDS011;26497;52.494;7.546;2023-09-30T01:42:09;84.17;;;69.77;;
40787;SDS011;26497;52.494;7.546;2023-09-30T01:44:36;80.85;;;71.22;;
40787;SDS011;26497;52.494;7.546;2023-09-30T01:47:03;87.57;;;72.95;;
40787;SDS011;26497;52.494;7.546;2023-09-30T01:49:30;86.97;;;71.07;;
40787;SDS011;26497;52.494;7.546;2023-09-30T01:51:57;78.63;;;70.38;;
40787;SDS011;26497;52.494;7.546;2023-09-30T01:54:25;82.65;;;70.93;;
40787;SDS011;26497;52.494;7.546;2023-09-30T01:56:53;79.40;;;70.95;;
40787;SDS011;26497;52.494;7.546;2023-09-30T01:59:22;100.93;;;74.20;;
40787;SDS011;26497;52.494;7.546;2023-09-30T02:01:50;80.72;;;70.28;;
40787;SDS011;26497;52.494;7.546;2023-09-30T02:04:17;87.20;;;72.93;;
40787;SDS011;26497;52.494;7.546;2023-09-30T02:06:44;85.35;;;72.75;;
40787;SDS011;26497;52.494;7.546;2023-09-30T02:09:11;81.22;;;71.03;;
40787;SDS011;26497;52.494;7.546;2023-09-30T02:11:38;82.18;;;70.15;;
40787;SDS011;26497;52.494;7.546;2023-09-30T02:14:07;74.85;;;64.40;;
40787;SDS011;26497;52.494;7.546;2023-09-30T02:16:36;77.20;;;61.25;;
40787;SDS011;26497;52.494;7.546;2023-09-30T02:19:04;76.82;;;65.57;;
40787;SDS011;26497;52.494;7.546;2023-09-30T02:21:31;75.78;;;67.57;;
40787;SDS011;26497;52.494;7.546;2023-09-30T02:23:58;76.82;;;68.82;;
40787;SDS011;26497;52.494;7.546;2023-09-30T02:26:26;91.68;;;69.65;;
40787;SDS011;26497;52.494;7.546;2023-09-30T02:28:54;99.80;;;74.13;;
40787;SDS011;26497;52.494;7.546;2023-09-30T02:31:23;103.60;;;70.15;;
40787;SDS011;26497;52.494;7.546;2023-09-30T02:33:50;81.30;;;73.18;;
40787;SDS011;26497;52.494;7.546;2023-09-30T02:36:17;85.75;;;76.07;;
40787;SDS011;26497;52.494;7.546;2023-09-30T02:38:44;84.32;;;75.45;;
40787;SDS011;26497;52.494;7.546;2023-09-30T02:41:11;83.18;;;72.10;;
40787;SDS011;26497;52.494;7.546;2023-09-30T02:43:38;84.40;;;76.15;;
40787;SDS011;26497;52.494;7.546;2023-09-30T02:46:05;79.53;;;71.85;;
40787;SDS011;26497;52.494;7.546;2023-09-30T02:48:35;79.43;;;71.03;;
40787;SDS011;26497;52.494;7.546;2023-09-30T02:51:02;77.63;;;70.15;;
40787;SDS011;26497;52.494;7.546;2023-09-30T02:53:29;81.25;;;72.80;;
40787;SDS011;26497;52.494;7.546;2023-09-30T02:55:56;85.88;;;71.05;;
40787;SDS011;26497;52.494;7.546;2023-09-30T02:58:25;79.72;;;71.75;;
40787;SDS011;26497;52.494;7.546;2023-09-30T03:00:52;84.95;;;76.47;;
40787;SDS011;26497;52.494;7.546;2023-09-30T03:03:19;83.22;;;75.03;;
40787;SDS011;26497;52.494;7.546;2023-09-30T03:05:51;84.95;;;76.32;;
40787;SDS011;26497;52.494;7.546;2023-09-30T03:08:19;86.45;;;76.50;;
40787;SDS011;26497;52.494;7.546;2023-09-30T03:10:47;80.32;;;71.68;;
40787;SDS011;26497;52.494;7.546;2023-09-30T03:13:14;84.03;;;72.57;;
40787;SDS011;26497;52.494;7.546;2023-09-30T03:15:43;89.82;;;69.05;;
40787;SDS011;26497;52.494;7.546;2023-09-30T03:18:11;75.78;;;68.38;;
40787;SDS011;26497;52.494;7.546;2023-09-30T03:20:39;81.25;;;67.20;;
40787;SDS011;26497;52.494;7.546;2023-09-30T03:23:09;83.05;;;65.63;;
40787;SDS011;26497;52.494;7.546;2023-09-30T03:25:39;77.07;;;64.28;;
40787;SDS011;26497;52.494;7.546;2023-09-30T03:28:07;84.90;;;65.95;;
40787;SDS011;26497;52.494;7.546;2023-09-30T03:30:34;79.47;;;65.22;;
40787;SDS011;26497;52.494;7.546;2023-09-30T03:33:01;98.25;;;65.55;;
40787;SDS011;26497;52.494;7.546;2023-09-30T03:35:29;87.30;;;64.63;;
40787;SDS011;26497;52.494;7.546;2023-09-30T03:37:57;71.00;;;63.38;;
40787;SDS011;26497;52.494;7.546;2023-09-30T03:40:26;78.45;;;65.00;;
40787;SDS011;26497;52.494;7.546;2023-09-30T03:42:58;91.30;;;64.18;;
40787;SDS011;26497;52.494;7.546;2023-09-30T03:45:25;92.78;;;68.55;;
40787;SDS011;26497;52.494;7.546;2023-09-30T03:47:52;73.18;;;64.53;;
40787;SDS011;26497;52.494;7.546;2023-09-30T03:50:19;80.22;;;66.32;;
40787;SDS011;26497;52.494;7.546;2023-09-30T03:52:48;83.93;;;70.40;;
40787;SDS011;26497;52.494;7.546;2023-09-30T03:55:15;95.80;;;72.97;;
40787;SDS011;26497;52.494;7.546;2023-09-30T03:57:47;81.28;;;69.70;;
40787;SDS011;26497;52.494;7.546;2023-09-30T04:00:14;94.05;;;71.03;;
40787;SDS011;26497;52.494;7.546;2023-09-30T04:02:44;83.40;;;69.75;;
40787;SDS011;26497;52.494;7.546;2023-09-30T04:05:13;104.43;;;72.68;;
40787;SDS011;26497;52.494;7.546;2023-09-30T04:07:42;101.28;;;73.88;;
40787;SDS011;26497;52.494;7.546;2023-09-30T04:10:09;83.43;;;71.53;;
40787;SDS011;26497;52.494;7.546;2023-09-30T04:12:36;93.80;;;73.15;;
40787;SDS011;26497;52.494;7.546;2023-09-30T04:15:05;93.07;;;75.10;;
40787;SDS011;26497;52.494;7.546;2023-09-30T04:17:37;83.85;;;71.68;;
40787;SDS011;26497;52.494;7.546;2023-09-30T04:20:04;89.43;;;74.22;;
40787;SDS011;26497;52.494;7.546;2023-09-30T04:22:35;102.47;;;73.65;;
40787;SDS011;26497;52.494;7.546;2023-09-30T04:25:02;109.60;;;78.45;;
40787;SDS011;26497;52.494;7.546;2023-09-30T04:27:33;87.30;;;74.20;;
40787;SDS011;26497;52.494;7.546;2023-09-30T04:30:00;86.75;;;76.57;;
40787;SDS011;26497;52.494;7.546;2023-09-30T04:32:35;84.43;;;75.55;;
40787;SDS011;26497;52.494;7.546;2023-09-30T04:35:02;95.10;;;73.75;;
40787;SDS011;26497;52.494;7.546;2023-09-30T04:37:30;83.82;;;75.32;;
40787;SDS011;26497;52.494;7.546;2023-09-30T04:39:57;86.07;;;75.25;;
40787;SDS011;26497;52.494;7.546;2023-09-30T04:42:24;86.70;;;72.97;;
40787;SDS011;26497;52.494;7.546;2023-09-30T04:44:52;87.25;;;70.30;;
40787;SDS011;26497;52.494;7.546;2023-09-30T04:47:19;88.88;;;69.80;;
40787;SDS011;26497;52.494;7.546;2023-09-30T04:49:48;100.18;;;75.38;;
40787;SDS011;26497;52.494;7.546;2023-09-30T04:52:16;78.63;;;70.25;;
40787;SDS011;26497;52.494;7.546;2023-09-30T04:54:43;90.63;;;72.72;;
40787;SDS011;26497;52.494;7.546;2023-09-30T04:57:11;120.53;;;74.32;;
40787;SDS011;26497;52.494;7.546;2023-09-30T04:59:38;111.80;;;72.50;;
40787;SDS011;26497;52.494;7.546;2023-09-30T05:02:05;101.95;;;68.50;;
40787;SDS011;26497;52.494;7.546;2023-09-30T05:04:32;95.95;;;66.45;;
40787;SDS011;26497;52.494;7.546;2023-09-30T05:07:00;97.60;;;68.00;;
40787;SDS011;26497;52.494;7.546;2023-09-30T05:09:28;85.88;;;67.53;;
40787;SDS011;26497;52.494;7.546;2023-09-30T05:11:56;101.55;;;69.22;;
40787;SDS011;26497;52.494;7.546;2023-09-30T05:14:23;87.53;;;67.35;;
40787;SDS011;26497;52.494;7.546;2023-09-30T05:16:52;84.82;;;68.18;;
40787;SDS011;26497;52.494;7.546;2023-09-30T05:19:21;92.57;;;70.78;;
40787;SDS011;26497;52.494;7.546;2023-09-30T05:21:48;110.82;;;71.20;;
40787;SDS011;26497;52.494;7.546;2023-09-30T05:24:17;101.28;;;70.72;;
40787;SDS011;26497;52.494;7.546;2023-09-30T05:26:46;107.20;;;72.97;;
40787;SDS011;26497;52.494;7.546;2023-09-30T05:29:13;92.95;;;69.18;;
40787;SDS011;26497;52.494;7.546;2023-09-30T05:31:41;93.57;;;67.75;;
40787;SDS011;26497;52.494;7.546;2023-09-30T05:34:10;93.53;;;70.38;;
40787;SDS011;26497;52.494;7.546;2023-09-30T05:36:37;95.45;;;74.68;;
40787;SDS011;26497;52.494;7.546;2023-09-30T05:39:04;89.55;;;71.20;;
40787;SDS011;26497;52.494;7.546;2023-09-30T05:41:37;96.17;;;71.83;;
40787;SDS011;26497;52.494;7.546;2023-09-30T05:44:04;97.53;;;73.70;;
40787;SDS011;26497;52.494;7.546;2023-09-30T05:46:33;117.97;;;72.65;;
40787;SDS011;26497;52.494;7.546;2023-09-30T05:49:00;101.50;;;71.65;;
40787;SDS011;26497;52.494;7.546;2023-09-30T05:51:31;93.00;;;71.93;;
40787;SDS011;26497;52.494;7.546;2023-09-30T05:53:59;109.32;;;71.22;;
40787;SDS011;26497;52.494;7.546;2023-09-30T05:56:26;95.72;;;71.60;;
40787;SDS011;26497;52.494;7.546;2023-09-30T05:58:55;93.68;;;73.10;;
40787;SDS011;26497;52.494;7.546;2023-09-30T06:01:22;104.80;;;76.38;;
40787;SDS011;26497;52.494;7.546;2023-09-30T06:03:49;117.22;;;75.47;;
40787;SDS011;26497;52.494;7.546;2023-09-30T06:06:16;117.97;;;72.78;;
40787;SDS011;26497;52.494;7.546;2023-09-30T06:08:44;115.13;;;67.53;;
40787;SDS011;26497;52.494;7.546;2023-09-30T06:11:15;121.38;;;69.70;;
40787;SDS011;26497;52.494;7.546;2023-09-30T06:13:44;121.28;;;69.55;;
40787;SDS011;26497;52.494;7.546;2023-09-30T06:16:13;121.80;;;68.55;;
40787;SDS011;26497;52.494;7.546;2023-09-30T06:18:41;122.28;;;69.13;;
40787;SDS011;26497;52.494;7.546;2023-09-30T06:21:10;107.03;;;65.80;;
40787;SDS011;26497;52.494;7.546;2023-09-30T06:23:37;130.20;;;72.07;;
40787;SDS011;26497;52.494;7.546;2023-09-30T06:26:05;104.95;;;75.47;;
40787;SDS011;26497;52.494;7.546;2023-09-30T06:28:32;103.57;;;75.97;;
40787;SDS011;26497;52.494;7.546;2023-09-30T06:31:05;99.78;;;76.30;;
40787;SDS011;26497;52.494;7.546;2023-09-30T06:33:35;88.45;;;79.40;;
40787;SDS011;26497;52.494;7.546;2023-09-30T06:36:07;100.15;;;91.30;;
40787;SDS011;26497;52.494;7.546;2023-09-30T06:38:35;113.75;;;105.32;;
40787;SDS011;26497;52.494;7.546;2023-09-30T06:41:03;150.43;;;138.25;;
40787;SDS011;26497;52.494;7.546;2023-09-30T06:43:30;124.55;;;116.07;;
40787;SDS011;26497;52.494;7.546;2023-09-30T06:45:58;120.15;;;112.05;;
40787;SDS011;26497;52.494;7.546;2023-09-30T06:48:25;120.20;;;111.80;;
40787;SDS011;26497;52.494;7.546;2023-09-30T06:50:54;105.20;;;98.38;;
40787;SDS011;26497;52.494;7.546;2023-09-30T06:53:21;91.97;;;84.90;;
40787;SDS011;26497;52.494;7.546;2023-09-30T06:55:48;72.60;;;66.75;;
40787;SDS011;26497;52.494;7.546;2023-09-30T06:58:16;85.22;;;78.93;;
40787;SDS011;26497;52.494;7.546;2023-09-30T07:00:46;124.80;;;116.70;;
40787;SDS011;26497;52.494;7.546;2023-09-30T07:03:15;156.82;;;146.48;;
40787;SDS011;26497;52.494;7.546;2023-09-30T07:05:42;197.75;;;186.13;;
40787;SDS011;26497;52.494;7.546;2023-09-30T07:08:10;1999.90;;;999.90;;
40787;SDS011;26497;52.494;7.546;2023-09-30T07:10:37;1999.90;;;999.90;;
40787;SDS011;26497;52.494;7.546;2023-09-30T07:13:04;1999.90;;;999.90;;
40787;SDS011;26497;52.494;7.546;2023-09-30T07:15:32;1999.90;;;999.90;;
40787;SDS011;26497;52.494;7.546;2023-09-30T07:17:59;1999.90;;;999.90;;
40787;SDS011;26497;52.494;7.546;2023-09-30T07:20:27;1999.90;;;999.90;;
40787;SDS011;26497;52.494;7.546;2023-09-30T07:22:57;1999.90;;;999.90;;
40787;SDS011;26497;52.494;7.546;2023-09-30T07:25:26;1999.90;;;999.90;;
40787;SDS011;26497;52.494;7.546;2023-09-30T07:27:53;1999.90;;;999.90;;
40787;SDS011;26497;52.494;7.546;2023-09-30T07:30:20;1999.90;;;999.90;;
40787;SDS011;26497;52.494;7.546;2023-09-30T07:32:48;1999.90;;;999.90;;
40787;SDS011;26497;52.494;7.546;2023-09-30T07:35:15;274.52;;;257.75;;
40787;SDS011;26497;52.494;7.546;2023-09-30T07:37:43;245.50;;;230.05;;
40787;SDS011;26497;52.494;7.546;2023-09-30T07:40:11;167.88;;;156.27;;
40787;SDS011;26497;52.494;7.546;2023-09-30T07:42:40;125.88;;;116.95;;
40787;SDS011;26497;52.494;7.546;2023-09-30T07:45:08;107.97;;;99.88;;
40787;SDS011;26497;52.494;7.546;2023-09-30T07:47:36;83.13;;;76.60;;
40787;SDS011;26497;52.494;7.546;2023-09-30T07:50:03;75.60;;;69.40;;
40787;SDS011;26497;52.494;7.546;2023-09-30T07:55:01;78.40;;;70.40;;
40787;SDS011;26497;52.494;7.546;2023-09-30T07:57:30;89.20;;;81.80;;
40787;SDS011;26497;52.494;7.546;2023-09-30T07:59:59;91.82;;;84.28;;
40787;SDS011;26497;52.494;7.546;2023-09-30T08:02:28;98.13;;;90.20;;
40787;SDS011;26497;52.494;7.546;2023-09-30T08:04:58;110.03;;;101.50;;
40787;SDS011;26497;52.494;7.546;2023-09-30T08:07:25;99.50;;;90.03;;
40787;SDS011;26497;52.494;7.546;2023-09-30T08:09:52;90.47;;;83.65;;
40787;SDS011;26497;52.494;7.546;2023-09-30T08:12:20;88.40;;;80.32;;
40787;SDS011;26497;52.494;7.546;2023-09-30T08:14:47;85.15;;;78.20;;
40787;SDS011;26497;52.494;7.546;2023-09-30T08:17:17;105.25;;;97.88;;
40787;SDS011;26497;52.494;7.546;2023-09-30T08:19:44;128.55;;;120.28;;
40787;SDS011;26497;52.494;7.546;2023-09-30T08:22:13;1999.90;;;999.90;;
40787;SDS011;26497;52.494;7.546;2023-09-30T08:24:41;1999.90;;;999.90;;
40787;SDS011;26497;52.494;7.546;2023-09-30T08:27:10;1999.90;;;999.90;;
40787;SDS011;26497;52.494;7.546;2023-09-30T08:29:39;1999.90;;;999.90;;
40787;SDS011;26497;52.494;7.546;2023-09-30T08:32:06;1999.90;;;999.90;;
40787;SDS011;26497;52.494;7.546;2023-09-30T08:34:34;1999.90;;;999.90;;
40787;SDS011;26497;52.494;7.546;2023-09-30T08:37:01;1999.90;;;999.90;;
40787;SDS011;26497;52.494;7.546;2023-09-30T08:39:28;1999.90;;;999.90;;
40787;SDS011;26497;52.494;7.546;2023-09-30T08:41:56;1999.90;;;999.90;;
40787;SDS011;26497;52.494;7.546;2023-09-30T08:44:23;1999.90;;;999.90;;
40787;SDS011;26497;52.494;7.546;2023-09-30T08:46:51;1999.90;;;999.90;;
40787;SDS011;26497;52.494;7.546;2023-09-30T08:49:20;1999.90;;;999.90;;
40787;SDS011;26497;52.494;7.546;2023-09-30T08:51:50;1999.90;;;999.90;;
40787;SDS011;26497;52.494;7.546;2023-09-30T08:54:17;1999.90;;;999.90;;
40787;SDS011;26497;52.494;7.546;2023-09-30T08:56:46;1999.90;;;999.90;;
40787;SDS011;26497;52.494;7.546;2023-09-30T08:59:16;1999.90;;;999.90;;
40787;SDS011;26497;52.494;7.546;2023-09-30T09:01:43;1999.90;;;999.90;;
40787;SDS011;26497;52.494;7.546;2023-09-30T09:04:11;1999.90;;;999.90;;
40787;SDS011;26497;52.494;7.546;2023-09-30T09:06:38;1999.90;;;999.90;;
40787;SDS011;26497;52.494;7.546;2023-09-30T09:09:14;1999.90;;;999.90;;
40787;SDS011;26497;52.494;7.546;2023-09-30T09:11:43;1999.90;;;999.90;;
40787;SDS011;26497;52.494;7.546;2023-09-30T09:14:15;1999.90;;;999.90;;
40787;SDS011;26497;52.494;7.546;2023-09-30T09:16:51;1999.90;;;999.90;;
40787;SDS011;26497;52.494;7.546;2023-09-30T09:19:22;1999.90;;;999.90;;
40787;SDS011;26497;52.494;7.546;2023-09-30T09:21:55;1999.90;;;999.90;;
40787;SDS011;26497;52.494;7.546;2023-09-30T09:24:30;1999.90;;;999.90;;
40787;SDS011;26497;52.494;7.546;2023-09-30T09:27:06;1999.90;;;999.90;;
40787;SDS011;26497;52.494;7.546;2023-09-30T09:29:34;1999.90;;;999.90;;
40787;SDS011;26497;52.494;7.546;2023-09-30T09:32:08;1999.90;;;999.90;;
40787;SDS011;26497;52.494;7.546;2023-09-30T09:34:37;1999.90;;;999.90;;
40787;SDS011;26497;52.494;7.546;2023-09-30T09:37:14;1999.90;;;999.90;;
40787;SDS011;26497;52.494;7.546;2023-09-30T09:39:50;1999.90;;;999.90;;
40787;SDS011;26497;52.494;7.546;2023-09-30T09:42:25;1999.90;;;999.90;;
40787;SDS011;26497;52.494;7.546;2023-09-30T09:45:00;1999.90;;;999.90;;
40787;SDS011;26497;52.494;7.546;2023-09-30T09:47:31;1999.90;;;999.90;;
40787;SDS011;26497;52.494;7.546;2023-09-30T09:50:00;1999.90;;;999.90;;
40787;SDS011;26497;52.494;7.546;2023-09-30T09:52:31;1999.90;;;999.90;;
40787;SDS011;26497;52.494;7.546;2023-09-30T09:55:01;1999.90;;;999.90;;
40787;SDS011;26497;52.494;7.546;2023-09-30T09:57:31;1999.90;;;999.90;;
40787;SDS011;26497;52.494;7.546;2023-09-30T10:00:03;1999.90;;;999.90;;
40787;SDS011;26497;52.494;7.546;2023-09-30T10:02:39;1999.90;;;999.90;;
40787;SDS011;26497;52.494;7.546;2023-09-30T10:05:06;1999.90;;;999.90;;
40787;SDS011;26497;52.494;7.546;2023-09-30T10:07:37;1999.90;;;999.90;;
40787;SDS011;26497;52.494;7.546;2023-09-30T10:10:12;1999.90;;;999.90;;
40787;SDS011;26497;52.494;7.546;2023-09-30T10:12:46;1999.90;;;999.90;;
40787;SDS011;26497;52.494;7.546;2023-09-30T10:18:08;1999.90;;;999.90;;
40787;SDS011;26497;52.494;7.546;2023-09-30T10:20:37;1999.90;;;999.90;;
40787;SDS011;26497;52.494;7.546;2023-09-30T10:23:22;1999.90;;;999.90;;
40787;SDS011;26497;52.494;7.546;2023-09-30T10:25:53;1999.90;;;999.90;;
40787;SDS011;26497;52.494;7.546;2023-09-30T10:28:43;1999.90;;;999.90;;
40787;SDS011;26497;52.494;7.546;2023-09-30T10:31:12;1999.90;;;999.90;;
40787;SDS011;26497;52.494;7.546;2023-09-30T10:36:49;1999.90;;;999.90;;
40787;SDS011;26497;52.494;7.546;2023-09-30T10:48:33;1999.90;;;999.90;;
40787;SDS011;26497;52.494;7.546;2023-09-30T10:53:49;1999.90;;;999.90;;
40787;SDS011;26497;52.494;7.546;2023-09-30T10:56:18;1999.90;;;999.90;;
40787;SDS011;26497;52.494;7.546;2023-09-30T10:58:48;1999.90;;;999.90;;
40787;SDS011;26497;52.494;7.546;2023-09-30T11:01:16;1999.90;;;999.90;;
40787;SDS011;26497;52.494;7.546;2023-09-30T11:03:46;1999.90;;;999.90;;
40787;SDS011;26497;52.494;7.546;2023-09-30T11:06:16;1999.90;;;999.90;;
40787;SDS011;26497;52.494;7.546;2023-09-30T11:08:50;1999.90;;;999.90;;
40787;SDS011;26497;52.494;7.546;2023-09-30T11:11:31;1999.90;;;999.90;;
40787;SDS011;26497;52.494;7.546;2023-09-30T11:14:04;1999.90;;;999.90;;
40787;SDS011;26497;52.494;7.546;2023-09-30T11:16:46;1999.90;;;999.90;;
40787;SDS011;26497;52.494;7.546;2023-09-30T11:19:14;1999.90;;;999.90;;
40787;SDS011;26497;52.494;7.546;2023-09-30T11:21:42;1999.90;;;999.90;;
40787;SDS011;26497;52.494;7.546;2023-09-30T11:24:10;1999.90;;;999.90;;
40787;SDS011;26497;52.494;7.546;2023-09-30T11:26:38;1999.90;;;999.90;;
40787;SDS011;26497;52.494;7.546;2023-09-30T11:29:10;1999.90;;;999.90;;
40787;SDS011;26497;52.494;7.546;2023-09-30T11:31:43;1999.90;;;999.90;;
40787;SDS011;26497;52.494;7.546;2023-09-30T11:34:12;1999.90;;;999.90;;
40787;SDS011;26497;52.494;7.546;2023-09-30T11:36:40;1999.90;;;999.90;;
40787;SDS011;26497;52.494;7.546;2023-09-30T11:39:20;1999.90;;;999.90;;
40787;SDS011;26497;52.494;7.546;2023-09-30T11:41:49;1999.90;;;999.90;;
40787;SDS011;26497;52.494;7.546;2023-09-30T11:44:18;1999.90;;;999.90;;
40787;SDS011;26497;52.494;7.546;2023-09-30T11:46:49;1999.90;;;999.90;;
40787;SDS011;26497;52.494;7.546;2023-09-30T11:49:25;1999.90;;;999.90;;
40787;SDS011;26497;52.494;7.546;2023-09-30T11:51:55;1999.90;;;999.90;;
40787;SDS011;26497;52.494;7.546;2023-09-30T11:54:28;1999.90;;;999.90;;
40787;SDS011;26497;52.494;7.546;2023-09-30T11:56:59;1999.90;;;999.90;;
40787;SDS011;26497;52.494;7.546;2023-09-30T11:59:29;1999.90;;;999.90;;
40787;SDS011;26497;52.494;7.546;2023-09-30T12:01:57;1999.90;;;999.90;;
40787;SDS011;26497;52.494;7.546;2023-09-30T12:04:24;1999.90;;;999.90;;
40787;SDS011;26497;52.494;7.546;2023-09-30T12:06:51;1999.90;;;999.90;;
40787;SDS011;26497;52.494;7.546;2023-09-30T12:09:18;1999.90;;;999.90;;
40787;SDS011;26497;52.494;7.546;2023-09-30T12:11:50;1999.90;;;999.90;;
40787;SDS011;26497;52.494;7.546;2023-09-30T12:14:18;1999.90;;;999.90;;
40787;SDS011;26497;52.494;7.546;2023-09-30T12:16:47;1999.90;;;999.90;;
40787;SDS011;26497;52.494;7.546;2023-09-30T12:19:15;1999.90;;;999.90;;
40787;SDS011;26497;52.494;7.546;2023-09-30T12:21:43;1999.90;;;999.90;;
40787;SDS011;26497;52.494;7.546;2023-09-30T12:24:13;1999.90;;;999.90;;
40787;SDS011;26497;52.494;7.546;2023-09-30T12:26:42;1999.90;;;999.90;;
40787;SDS011;26497;52.494;7.546;2023-09-30T12:31:41;1999.90;;;999.90;;
40787;SDS011;26497;52.494;7.546;2023-09-30T12:34:10;1999.90;;;999.90;;
40787;SDS011;26497;52.494;7.546;2023-09-30T12:36:38;1999.90;;;999.90;;
40787;SDS011;26497;52.494;7.546;2023-09-30T12:39:06;1999.90;;;999.90;;
40787;SDS011;26497;52.494;7.546;2023-09-30T12:41:36;1999.90;;;999.90;;
40787;SDS011;26497;52.494;7.546;2023-09-30T12:44:04;1999.90;;;999.90;;
40787;SDS011;26497;52.494;7.546;2023-09-30T12:46:32;1999.90;;;999.90;;
40787;SDS011;26497;52.494;7.546;2023-09-30T12:49:02;1999.90;;;999.90;;
40787;SDS011;26497;52.494;7.546;2023-09-30T12:51:31;1999.90;;;999.90;;
40787;SDS011;26497;52.494;7.546;2023-09-30T12:53:59;1999.90;;;999.90;;
40787;SDS011;26497;52.494;7.546;2023-09-30T12:56:27;1999.90;;;999.90;;
40787;SDS011;26497;52.494;7.546;2023-09-30T12:58:55;1999.90;;;999.90;;
40787;SDS011;26497;52.494;7.546;2023-09-30T13:01:22;1999.90;;;999.90;;
40787;SDS011;26497;52.494;7.546;2023-09-30T13:03:49;1999.90;;;999.90;;
40787;SDS011;26497;52.494;7.546;2023-09-30T13:06:16;1999.90;;;999.90;;
40787;SDS011;26497;52.494;7.546;2023-09-30T13:08:46;1999.90;;;999.90;;
40787;SDS011;26497;52.494;7.546;2023-09-30T13:11:14;1999.90;;;999.90;;
40787;SDS011;26497;52.494;7.546;2023-09-30T13:13:41;1999.90;;;999.90;;
40787;SDS011;26497;52.494;7.546;2023-09-30T13:16:09;1999.90;;;999.90;;
40787;SDS011;26497;52.494;7.546;2023-09-30T13:18:37;1999.90;;;999.90;;
40787;SDS011;26497;52.494;7.546;2023-09-30T13:21:05;1999.90;;;999.90;;
40787;SDS011;26497;52.494;7.546;2023-09-30T13:23:32;1999.90;;;999.90;;
40787;SDS011;26497;52.494;7.546;2023-09-30T13:26:00;1999.90;;;999.90;;
40787;SDS011;26497;52.494;7.546;2023-09-30T13:28:28;1999.90;;;999.90;;
40787;SDS011;26497;52.494;7.546;2023-09-30T13:30:55;1999.90;;;999.90;;
40787;SDS011;26497;52.494;7.546;2023-09-30T13:33:22;1999.90;;;999.90;;
40787;SDS011;26497;52.494;7.546;2023-09-30T13:35:49;1999.90;;;999.90;;
40787;SDS011;26497;52.494;7.546;2023-09-30T13:38:17;1999.90;;;999.90;;
40787;SDS011;26497;52.494;7.546;2023-09-30T13:40:44;1999.90;;;999.90;;
40787;SDS011;26497;52.494;7.546;2023-09-30T13:43:13;1999.90;;;999.90;;
40787;SDS011;26497;52.494;7.546;2023-09-30T13:45:40;1999.90;;;999.90;;
40787;SDS011;26497;52.494;7.546;2023-09-30T13:48:07;1999.90;;;999.90;;
40787;SDS011;26497;52.494;7.546;2023-09-30T13:50:34;1999.90;;;999.90;;
40787;SDS011;26497;52.494;7.546;2023-09-30T13:53:01;1999.90;;;999.90;;
40787;SDS011;26497;52.494;7.546;2023-09-30T13:55:29;1999.90;;;999.90;;
40787;SDS011;26497;52.494;7.546;2023-09-30T13:57:56;1999.90;;;999.90;;
40787;SDS011;26497;52.494;7.546;2023-09-30T14:00:24;1999.90;;;999.90;;
40787;SDS011;26497;52.494;7.546;2023-09-30T14:02:51;1999.90;;;999.90;;
40787;SDS011;26497;52.494;7.546;2023-09-30T14:05:19;1999.90;;;999.90;;
40787;SDS011;26497;52.494;7.546;2023-09-30T14:07:46;1999.90;;;999.90;;
40787;SDS011;26497;52.494;7.546;2023-09-30T14:10:13;1999.90;;;999.90;;
40787;SDS011;26497;52.494;7.546;2023-09-30T14:12:40;1999.90;;;999.90;;
40787;SDS011;26497;52.494;7.546;2023-09-30T14:15:08;1999.90;;;999.90;;
40787;SDS011;26497;52.494;7.546;2023-09-30T14:17:37;1999.90;;;999.90;;
40787;SDS011;26497;52.494;7.546;2023-09-30T14:20:05;1999.90;;;999.90;;
40787;SDS011;26497;52.494;7.546;2023-09-30T14:22:34;1999.90;;;999.90;;
40787;SDS011;26497;52.494;7.546;2023-09-30T14:25:01;1999.90;;;999.90;;
40787;SDS011;26497;52.494;7.546;2023-09-30T14:27:28;1999.90;;;999.90;;
40787;SDS011;26497;52.494;7.546;2023-09-30T14:29:55;1999.90;;;999.90;;
40787;SDS011;26497;52.494;7.546;2023-09-30T14:32:22;1999.90;;;999.90;;
40787;SDS011;26497;52.494;7.546;2023-09-30T14:34:51;1999.90;;;999.90;;